Time;durP1;ratioP1;P1;durP2;ratioP2;P2;SDS_P1;SDS_P2;PMS_P1;PMS_P2;Temp;Humidity;BMP_temperature;BMP_pressure;BME280_temperature;BME280_humidity;BME280_pressure;Samples;Min_cycle;Max_cycle;Signal;HPM_P1;HPM_P2
2023/06/10 00:01:43;;;;;;;8.30;3.83;;;;;;;;;;5079319;28;20410;-87
2023/06/10 00:04:10;;;;;;;8.57;3.70;;;;;;;;;;5083409;28;20427;-88
2023/06/10 00:06:39;;;;;;;8.50;3.60;;;;;;;;;;5081027;28;20402;-87
2023/06/10 00:09:14;;;;;;;10.85;3.67;;;;;;;;;;5083195;28;20440;-86
2023/06/10 00:11:42;;;;;;;8.27;3.55;;;;;;;;;;5081865;28;20437;-86
2023/06/10 00:14:09;;;;;;;8.27;3.50;;;;;;;;;;5077815;28;20960;-89
2023/06/10 00:16:38;;;;;;;10.75;3.53;;;;;;;;;;5083676;28;20429;-89
2023/06/10 00:19:07;;;;;;;12.65;4.10;;;;;;;;;;5080207;28;20409;-87
2023/06/10 00:21:37;;;;;;;9.57;3.40;;;;;;;;;;5078341;28;20428;-89
2023/06/10 00:24:05;;;;;;;8.70;3.33;;;;;;;;;;5082556;28;21319;-89
2023/06/10 00:26:40;;;;;;;9.85;3.60;;;;;;;;;;5081690;28;20418;-85
2023/06/10 00:29:08;;;;;;;10.10;3.50;;;;;;;;;;5080763;28;20448;-90
2023/06/10 00:31:36;;;;;;;10.90;3.50;;;;;;;;;;5082407;28;20419;-87
2023/06/10 00:34:08;;;;;;;8.13;3.50;;;;;;;;;;5085989;28;20424;-85
2023/06/10 00:36:43;;;;;;;8.90;3.40;;;;;;;;;;5083473;28;20411;-87
2023/06/10 00:39:11;;;;;;;7.97;3.03;;;;;;;;;;5075186;28;20419;-89
2023/06/10 00:41:40;;;;;;;10.68;3.40;;;;;;;;;;5077905;28;21027;-88
2023/06/10 00:44:08;;;;;;;8.60;3.40;;;;;;;;;;5083886;28;20398;-89
2023/06/10 00:46:40;;;;;;;10.35;3.42;;;;;;;;;;5082314;28;20426;-89
2023/06/10 00:49:08;;;;;;;7.03;3.03;;;;;;;;;;5080037;28;20426;-88
2023/06/10 00:51:42;;;;;;;9.67;3.47;;;;;;;;;;5085538;28;20521;-87
2023/06/10 00:54:09;;;;;;;11.40;3.25;;;;;;;;;;5081644;28;20918;-85
2023/06/10 00:56:37;;;;;;;10.82;3.10;;;;;;;;;;5080830;28;20428;-88
2023/06/10 00:59:07;;;;;;;8.82;3.20;;;;;;;;;;5079761;28;20425;-91
2023/06/10 01:01:34;;;;;;;7.63;2.70;;;;;;;;;;5083518;28;20394;-89
2023/06/10 01:04:03;;;;;;;7.77;3.30;;;;;;;;;;5081679;28;20429;-88
2023/06/10 01:06:47;;;;;;;7.25;2.88;;;;;;;;;;5082731;28;20794;-85
2023/06/10 01:09:24;;;;;;;11.20;3.03;;;;;;;;;;5082655;28;20411;-87
2023/06/10 01:11:58;;;;;;;13.63;3.50;;;;;;;;;;5078501;28;20427;-88
2023/06/10 01:14:32;;;;;;;11.43;3.00;;;;;;;;;;5086741;28;20435;-89
2023/06/10 01:17:08;;;;;;;10.23;3.00;;;;;;;;;;5080704;28;20425;-89
2023/06/10 01:19:43;;;;;;;8.80;3.03;;;;;;;;;;5082372;28;20914;-90
2023/06/10 01:22:15;;;;;;;7.22;2.88;;;;;;;;;;5071767;28;20436;-89
2023/06/10 01:24:43;;;;;;;8.38;2.60;;;;;;;;;;5087069;28;20924;-88
2023/06/10 01:27:14;;;;;;;7.95;2.80;;;;;;;;;;5087702;28;20420;-88
2023/06/10 01:29:43;;;;;;;6.30;2.78;;;;;;;;;;5081498;28;20417;-88
2023/06/10 01:32:14;;;;;;;9.60;2.92;;;;;;;;;;5080091;28;21192;-88
2023/06/10 01:34:43;;;;;;;8.15;2.80;;;;;;;;;;5080566;28;20402;-86
2023/06/10 01:37:19;;;;;;;7.00;2.40;;;;;;;;;;5080812;28;20433;-86
2023/06/10 01:39:52;;;;;;;7.68;2.30;;;;;;;;;;5080339;28;20820;-88
2023/06/10 01:42:25;;;;;;;8.27;2.88;;;;;;;;;;5088047;28;21000;-90
2023/06/10 01:44:58;;;;;;;6.38;2.42;;;;;;;;;;5078152;28;20784;-91
2023/06/10 01:47:31;;;;;;;7.75;2.65;;;;;;;;;;5080946;28;20422;-89
2023/06/10 01:50:00;;;;;;;9.70;2.70;;;;;;;;;;5088566;28;21432;-88
2023/06/10 01:52:37;;;;;;;8.10;2.43;;;;;;;;;;5080322;28;20416;-88
2023/06/10 01:55:05;;;;;;;6.93;2.50;;;;;;;;;;5079668;28;20442;-87
2023/06/10 01:57:33;;;;;;;8.80;2.50;;;;;;;;;;5097313;28;20418;-90
2023/06/10 02:00:01;;;;;;;6.72;2.70;;;;;;;;;;5078700;28;20428;-87
2023/06/10 02:02:41;;;;;;;7.78;2.42;;;;;;;;;;5083120;28;20425;-89
2023/06/10 02:05:15;;;;;;;8.00;2.40;;;;;;;;;;5079779;28;20424;-89
2023/06/10 02:07:50;;;;;;;9.25;3.03;;;;;;;;;;5082695;28;20407;-88
2023/06/10 02:10:23;;;;;;;9.50;2.80;;;;;;;;;;5079519;28;20421;-88
2023/06/10 02:12:51;;;;;;;5.68;2.35;;;;;;;;;;5079754;28;20411;-87
2023/06/10 02:15:19;;;;;;;10.07;2.40;;;;;;;;;;5079224;28;20878;-86
2023/06/10 02:17:48;;;;;;;10.38;2.63;;;;;;;;;;5075850;28;20415;-89
2023/06/10 02:20:21;;;;;;;8.23;2.58;;;;;;;;;;5077128;28;20467;-88
2023/06/10 02:22:51;;;;;;;6.72;2.38;;;;;;;;;;5080211;28;20426;-83
2023/06/10 02:25:23;;;;;;;7.60;2.55;;;;;;;;;;5072449;28;20501;-88
2023/06/10 02:27:57;;;;;;;9.32;2.60;;;;;;;;;;5081035;28;20516;-85
2023/06/10 02:30:25;;;;;;;6.35;2.05;;;;;;;;;;5082584;28;20399;-86
2023/06/10 02:32:53;;;;;;;7.70;2.15;;;;;;;;;;5072570;28;20641;-89
2023/06/10 02:35:24;;;;;;;10.97;2.50;;;;;;;;;;5080326;28;20419;-88
2023/06/10 02:37:58;;;;;;;9.98;2.65;;;;;;;;;;5079162;28;20426;-90
2023/06/10 02:40:32;;;;;;;6.75;2.10;;;;;;;;;;5079346;28;20810;-87
2023/06/10 02:43:04;;;;;;;7.97;2.30;;;;;;;;;;5081203;28;20419;-89
2023/06/10 02:45:37;;;;;;;7.55;2.35;;;;;;;;;;5079145;28;20410;-89
2023/06/10 02:48:07;;;;;;;10.30;2.25;;;;;;;;;;5078499;28;21091;-87
2023/06/10 02:50:40;;;;;;;8.88;2.03;;;;;;;;;;5080790;28;20408;-90
2023/06/10 02:53:24;;;;;;;6.05;2.00;;;;;;;;;;5082325;28;20431;-88
2023/06/10 02:56:04;;;;;;;8.48;2.10;;;;;;;;;;5089359;28;20410;-83
2023/06/10 02:58:32;;;;;;;7.45;2.00;;;;;;;;;;5084066;28;20427;-89
2023/06/10 03:01:06;;;;;;;7.82;2.40;;;;;;;;;;5082066;28;21043;-89
2023/06/10 03:03:48;;;;;;;9.07;2.25;;;;;;;;;;5084369;28;20418;-89
2023/06/10 03:06:21;;;;;;;6.50;2.00;;;;;;;;;;5083471;28;20746;-88
2023/06/10 03:08:50;;;;;;;9.18;2.03;;;;;;;;;;5082791;28;20917;-88
2023/06/10 03:11:23;;;;;;;6.70;1.90;;;;;;;;;;5082397;28;20420;-88
2023/06/10 03:13:52;;;;;;;6.93;2.00;;;;;;;;;;5090580;28;20425;-86
2023/06/10 03:16:27;;;;;;;7.45;2.20;;;;;;;;;;5079997;28;20429;-91
2023/06/10 03:19:01;;;;;;;5.43;1.70;;;;;;;;;;5081846;28;20411;-89
2023/06/10 03:21:29;;;;;;;7.97;2.03;;;;;;;;;;5078570;28;20760;-89
2023/06/10 03:24:04;;;;;;;5.50;1.63;;;;;;;;;;5081993;28;20422;-88
2023/06/10 03:26:37;;;;;;;6.95;2.10;;;;;;;;;;5082713;28;20415;-86
2023/06/10 03:29:10;;;;;;;7.70;2.08;;;;;;;;;;5081289;28;20768;-87
2023/06/10 03:31:43;;;;;;;6.70;1.90;;;;;;;;;;5078358;28;20432;-89
2023/06/10 03:34:16;;;;;;;7.72;1.80;;;;;;;;;;5088987;28;20420;-87
2023/06/10 03:36:50;;;;;;;7.00;1.90;;;;;;;;;;5082767;28;20770;-89
2023/06/10 03:39:24;;;;;;;7.40;1.90;;;;;;;;;;5083693;28;20513;-89
2023/06/10 03:41:53;;;;;;;5.82;1.70;;;;;;;;;;5080565;28;20418;-84
2023/06/10 03:44:27;;;;;;;8.27;2.00;;;;;;;;;;5081324;28;20407;-86
2023/06/10 03:46:56;;;;;;;6.35;1.80;;;;;;;;;;5073732;28;20735;-88
2023/06/10 03:49:30;;;;;;;6.85;1.83;;;;;;;;;;5082852;28;20417;-87
2023/06/10 03:52:02;;;;;;;6.97;1.77;;;;;;;;;;5082723;28;20760;-90
2023/06/10 03:54:37;;;;;;;8.07;1.63;;;;;;;;;;5089291;28;20899;-87
2023/06/10 03:57:05;;;;;;;8.73;2.33;;;;;;;;;;5087110;28;20417;-89
2023/06/10 03:59:33;;;;;;;7.72;1.73;;;;;;;;;;5080105;28;20464;-89
2023/06/10 04:02:01;;;;;;;7.57;1.83;;;;;;;;;;5081518;28;20443;-91
2023/06/10 04:04:34;;;;;;;7.35;1.80;;;;;;;;;;5090967;28;20422;-87
2023/06/10 04:07:08;;;;;;;7.25;1.80;;;;;;;;;;5082418;28;20505;-89
2023/06/10 04:09:37;;;;;;;6.57;1.73;;;;;;;;;;5080805;28;20429;-89
2023/06/10 04:12:10;;;;;;;8.85;2.00;;;;;;;;;;5082845;28;20420;-88
2023/06/10 04:14:43;;;;;;;6.00;1.55;;;;;;;;;;5100788;27;20443;-84
2023/06/10 04:17:16;;;;;;;8.43;1.90;;;;;;;;;;5078708;28;20409;-86
2023/06/10 04:19:44;;;;;;;6.20;1.50;;;;;;;;;;5080566;28;20427;-86
2023/06/10 04:22:17;;;;;;;8.80;1.80;;;;;;;;;;5078624;28;20424;-87
2023/06/10 04:24:52;;;;;;;7.80;1.80;;;;;;;;;;5086401;28;20889;-88
2023/06/10 04:27:20;;;;;;;8.20;2.00;;;;;;;;;;5079581;28;20424;-89
2023/06/10 04:29:48;;;;;;;6.25;1.73;;;;;;;;;;5080644;28;20492;-89
2023/06/10 04:32:21;;;;;;;7.83;1.70;;;;;;;;;;5081742;28;20441;-86
2023/06/10 04:34:54;;;;;;;8.48;1.70;;;;;;;;;;5082295;28;20423;-87
2023/06/10 04:37:22;;;;;;;7.45;1.80;;;;;;;;;;5078224;28;20428;-89
2023/06/10 04:39:56;;;;;;;10.73;1.90;;;;;;;;;;5080453;28;20458;-88
2023/06/10 04:42:30;;;;;;;6.78;2.00;;;;;;;;;;5086823;28;20427;-88
2023/06/10 04:45:04;;;;;;;6.95;1.90;;;;;;;;;;5081456;28;20750;-87
2023/06/10 04:47:37;;;;;;;9.15;1.70;;;;;;;;;;5080254;28;20564;-86
2023/06/10 04:50:11;;;;;;;8.57;1.65;;;;;;;;;;5078858;28;20414;-88
2023/06/10 04:52:45;;;;;;;6.87;1.63;;;;;;;;;;5085046;28;20450;-87
2023/06/10 04:55:19;;;;;;;5.90;1.70;;;;;;;;;;5080512;28;20498;-88
2023/06/10 04:57:47;;;;;;;9.00;1.90;;;;;;;;;;5089241;28;20419;-86
2023/06/10 05:00:15;;;;;;;7.50;1.85;;;;;;;;;;5070971;28;20410;-86
2023/06/10 05:02:44;;;;;;;8.98;1.63;;;;;;;;;;5079538;28;20440;-86
2023/06/10 05:05:17;;;;;;;6.07;1.58;;;;;;;;;;5076646;28;20431;-90
2023/06/10 05:07:45;;;;;;;7.10;1.60;;;;;;;;;;5080663;28;20428;-89
2023/06/10 05:10:13;;;;;;;7.20;2.00;;;;;;;;;;5079047;28;20430;-87
2023/06/10 05:12:42;;;;;;;7.80;1.73;;;;;;;;;;5080048;28;20479;-89
2023/06/10 05:15:15;;;;;;;6.43;1.57;;;;;;;;;;5080481;28;20416;-88
2023/06/10 05:17:43;;;;;;;6.72;1.75;;;;;;;;;;5081650;28;20421;-87
2023/06/10 05:20:11;;;;;;;6.75;1.95;;;;;;;;;;5079990;28;20436;-84
2023/06/10 05:22:39;;;;;;;6.80;1.80;;;;;;;;;;5083460;28;21185;-88
2023/06/10 05:25:11;;;;;;;7.45;1.65;;;;;;;;;;5084524;28;20428;-90
2023/06/10 05:27:45;;;;;;;4.78;1.45;;;;;;;;;;5081815;28;20512;-86
2023/06/10 05:30:13;;;;;;;6.22;1.60;;;;;;;;;;5085084;28;20425;-79
2023/06/10 05:32:46;;;;;;;6.57;1.50;;;;;;;;;;5088482;28;20427;-79
2023/06/10 05:35:19;;;;;;;5.15;1.48;;;;;;;;;;5097490;28;20448;-81
2023/06/10 05:37:47;;;;;;;7.72;1.50;;;;;;;;;;5078563;28;21081;-81
2023/06/10 05:40:15;;;;;;;6.80;1.67;;;;;;;;;;5080175;28;20421;-80
2023/06/10 05:42:49;;;;;;;5.47;1.50;;;;;;;;;;5078513;28;20441;-81
2023/06/10 05:45:22;;;;;;;7.15;1.60;;;;;;;;;;5081923;28;21344;-80
2023/06/10 05:47:55;;;;;;;6.45;1.70;;;;;;;;;;5079804;28;20413;-81
2023/06/10 05:50:28;;;;;;;5.80;1.60;;;;;;;;;;5079143;28;20429;-83
2023/06/10 05:53:01;;;;;;;6.15;1.45;;;;;;;;;;5074969;28;20420;-81
2023/06/10 05:55:33;;;;;;;8.75;1.63;;;;;;;;;;5077522;28;20427;-80
2023/06/10 05:58:07;;;;;;;7.67;1.63;;;;;;;;;;5077995;28;20419;-81
2023/06/10 06:00:37;;;;;;;5.50;1.40;;;;;;;;;;5073770;28;21436;-80
2023/06/10 06:03:06;;;;;;;6.55;1.80;;;;;;;;;;5076786;28;20421;-82
2023/06/10 06:05:39;;;;;;;7.90;2.05;;;;;;;;;;5071470;28;20442;-80
2023/06/10 06:08:07;;;;;;;5.90;1.50;;;;;;;;;;5072604;28;20428;-80
2023/06/10 06:10:35;;;;;;;5.88;1.63;;;;;;;;;;5077523;28;20425;-81
2023/06/10 06:13:03;;;;;;;7.68;1.60;;;;;;;;;;5082338;28;20912;-80
2023/06/10 06:15:37;;;;;;;8.27;1.70;;;;;;;;;;5076970;28;20786;-80
2023/06/10 06:18:10;;;;;;;6.15;1.50;;;;;;;;;;5074893;28;20426;-80
2023/06/10 06:20:43;;;;;;;7.03;1.80;;;;;;;;;;5077728;28;20422;-80
2023/06/10 06:23:11;;;;;;;6.32;1.67;;;;;;;;;;5072803;28;20419;-80
2023/06/10 06:25:44;;;;;;;6.55;1.95;;;;;;;;;;5074189;28;20433;-80
2023/06/10 06:28:18;;;;;;;7.60;1.70;;;;;;;;;;5074106;28;20891;-80
2023/06/10 06:30:47;;;;;;;11.63;2.25;;;;;;;;;;5079563;28;20458;-80
2023/06/10 06:33:20;;;;;;;11.93;2.13;;;;;;;;;;5076480;28;20438;-80
2023/06/10 06:35:48;;;;;;;7.57;1.80;;;;;;;;;;5072837;28;20430;-80
2023/06/10 06:38:15;;;;;;;6.45;1.77;;;;;;;;;;5072434;28;20422;-80
2023/06/10 06:40:44;;;;;;;6.73;1.90;;;;;;;;;;5078779;28;20430;-80
2023/06/10 06:43:17;;;;;;;7.27;1.90;;;;;;;;;;5076653;28;20501;-80
2023/06/10 06:46:17;;;;;;;8.68;1.92;;;;;;;;;;5072659;28;20436;-80
2023/06/10 06:48:45;;;;;;;9.13;2.17;;;;;;;;;;5076027;28;20407;-79
2023/06/10 06:51:14;;;;;;;6.82;1.77;;;;;;;;;;5075849;28;20419;-81
2023/06/10 06:53:47;;;;;;;8.20;1.73;;;;;;;;;;5075093;28;20934;-80
2023/06/10 06:56:15;;;;;;;6.57;1.77;;;;;;;;;;5072437;28;20902;-79
2023/06/10 06:58:42;;;;;;;7.18;2.03;;;;;;;;;;5075247;28;20418;-80
2023/06/10 07:01:10;;;;;;;8.75;1.95;;;;;;;;;;5078447;28;20948;-79
2023/06/10 07:03:44;;;;;;;8.00;1.90;;;;;;;;;;5070762;28;20429;-80
2023/06/10 07:06:17;;;;;;;7.68;2.00;;;;;;;;;;5073291;28;20422;-80
2023/06/10 07:08:50;;;;;;;6.95;2.10;;;;;;;;;;5073032;28;20435;-80
2023/06/10 07:11:23;;;;;;;7.30;1.88;;;;;;;;;;5076506;28;20483;-80
2023/06/10 07:13:56;;;;;;;7.38;1.98;;;;;;;;;;5075541;28;20431;-79
2023/06/10 07:16:28;;;;;;;8.77;2.13;;;;;;;;;;5076244;28;20425;-80
2023/06/10 07:19:03;;;;;;;9.33;2.40;;;;;;;;;;5076260;28;20905;-79
2023/06/10 07:21:32;;;;;;;6.80;2.00;;;;;;;;;;5070200;28;20427;-80
2023/06/10 07:24:05;;;;;;;8.48;2.20;;;;;;;;;;5078158;28;20427;-80
2023/06/10 07:26:38;;;;;;;10.00;2.30;;;;;;;;;;5082966;28;20433;-80
2023/06/10 07:29:10;;;;;;;9.45;2.30;;;;;;;;;;5074569;28;20426;-79
2023/06/10 07:31:43;;;;;;;8.57;2.13;;;;;;;;;;5074247;28;20767;-79
2023/06/10 07:34:12;;;;;;;7.10;2.05;;;;;;;;;;5077894;28;20434;-79
2023/06/10 07:36:40;;;;;;;9.30;2.50;;;;;;;;;;5079871;28;20438;-80
2023/06/10 07:39:13;;;;;;;6.18;2.20;;;;;;;;;;5084146;28;20427;-79
2023/06/10 07:41:43;;;;;;;6.40;2.03;;;;;;;;;;5080628;28;20437;-79
2023/06/10 07:44:16;;;;;;;6.63;2.20;;;;;;;;;;5081388;28;20426;-79
2023/06/10 07:46:49;;;;;;;7.85;2.38;;;;;;;;;;5082362;28;20414;-80
2023/06/10 07:49:23;;;;;;;6.50;2.35;;;;;;;;;;5080722;28;20421;-79
2023/06/10 07:51:51;;;;;;;9.55;2.60;;;;;;;;;;5077203;28;20439;-79
2023/06/10 07:54:19;;;;;;;9.73;2.50;;;;;;;;;;5078403;28;20475;-80
2023/06/10 07:56:47;;;;;;;8.38;2.70;;;;;;;;;;5086653;28;20423;-79
2023/06/10 07:59:20;;;;;;;8.27;2.47;;;;;;;;;;5080906;28;20428;-79
2023/06/10 08:01:55;;;;;;;7.50;2.33;;;;;;;;;;5089045;28;20780;-79
2023/06/10 08:04:34;;;;;;;8.23;2.40;;;;;;;;;;5082381;28;20411;-78
2023/06/10 08:07:03;;;;;;;7.82;2.25;;;;;;;;;;5079477;28;20424;-80
2023/06/10 08:09:35;;;;;;;8.63;2.87;;;;;;;;;;5078289;28;20430;-79
2023/06/10 08:12:04;;;;;;;9.20;2.38;;;;;;;;;;5079507;28;20419;-79
2023/06/10 08:14:32;;;;;;;6.82;2.35;;;;;;;;;;5079674;28;20426;-79
2023/06/10 08:17:05;;;;;;;9.67;2.60;;;;;;;;;;5085452;28;20446;-78
2023/06/10 08:19:40;;;;;;;8.67;2.60;;;;;;;;;;5079219;28;20942;-79
2023/06/10 08:22:13;;;;;;;7.20;2.45;;;;;;;;;;5087442;28;20433;-80
2023/06/10 08:24:40;;;;;;;7.88;2.70;;;;;;;;;;5081559;28;21005;-80
2023/06/10 08:27:13;;;;;;;9.67;2.73;;;;;;;;;;5077376;28;20415;-79
2023/06/10 08:29:41;;;;;;;7.95;2.40;;;;;;;;;;5082827;28;20420;-80
2023/06/10 08:32:09;;;;;;;7.80;2.80;;;;;;;;;;5096173;28;20450;-79
2023/06/10 08:34:43;;;;;;;8.73;2.60;;;;;;;;;;5078422;28;20419;-79
2023/06/10 08:37:11;;;;;;;8.45;2.53;;;;;;;;;;5075218;28;20431;-79
2023/06/10 08:39:39;;;;;;;9.23;2.63;;;;;;;;;;5077821;28;20423;-79
2023/06/10 08:42:14;;;;;;;9.35;3.17;;;;;;;;;;5075104;28;20419;-80
2023/06/10 08:44:47;;;;;;;9.02;2.60;;;;;;;;;;5077924;28;20430;-79
2023/06/10 08:47:20;;;;;;;8.98;2.63;;;;;;;;;;5079969;28;20426;-81
2023/06/10 08:49:56;;;;;;;10.57;2.90;;;;;;;;;;5081157;28;20410;-80
2023/06/10 08:52:27;;;;;;;8.33;2.70;;;;;;;;;;5074335;28;21178;-79
2023/06/10 08:54:57;;;;;;;7.55;3.10;;;;;;;;;;5080637;28;20414;-79
2023/06/10 08:57:26;;;;;;;9.07;3.05;;;;;;;;;;5062355;28;20426;-80
2023/06/10 08:59:57;;;;;;;10.00;2.95;;;;;;;;;;5068762;28;21348;-81
2023/06/10 09:02:30;;;;;;;8.38;3.20;;;;;;;;;;5062733;28;21075;-81
2023/06/10 09:05:05;;;;;;;9.43;3.28;;;;;;;;;;5058241;28;21734;-81
2023/06/10 09:07:35;;;;;;;8.77;3.10;;;;;;;;;;5062423;28;21267;-81
2023/06/10 09:10:06;;;;;;;11.10;3.58;;;;;;;;;;5068161;28;20437;-82
2023/06/10 09:12:34;;;;;;;9.43;2.97;;;;;;;;;;5055219;28;20767;-81
2023/06/10 09:15:02;;;;;;;7.65;2.80;;;;;;;;;;5055006;28;20437;-80
2023/06/10 09:17:30;;;;;;;9.52;3.10;;;;;;;;;;5054330;28;20418;-81
2023/06/10 09:20:05;;;;;;;8.20;3.20;;;;;;;;;;5050537;28;20430;-80
2023/06/10 09:22:38;;;;;;;7.13;3.22;;;;;;;;;;5048507;28;20555;-80
2023/06/10 09:25:13;;;;;;;11.70;3.30;;;;;;;;;;5050554;28;20429;-81
2023/06/10 09:27:49;;;;;;;8.93;3.63;;;;;;;;;;5056873;28;20898;-81
2023/06/10 09:30:27;;;;;;;8.27;3.40;;;;;;;;;;5049507;28;20433;-80
2023/06/10 09:32:56;;;;;;;9.05;3.13;;;;;;;;;;5050575;28;20422;-82
2023/06/10 09:35:25;;;;;;;8.70;3.30;;;;;;;;;;5053482;28;20422;-81
2023/06/10 09:37:53;;;;;;;7.13;3.10;;;;;;;;;;5063436;28;20878;-81
2023/06/10 09:40:21;;;;;;;10.07;3.42;;;;;;;;;;5055950;28;20414;-81
2023/06/10 09:42:54;;;;;;;7.75;3.25;;;;;;;;;;5057527;28;20425;-80
2023/06/10 09:45:30;;;;;;;9.90;2.95;;;;;;;;;;5039897;28;20426;-80
2023/06/10 09:48:02;;;;;;;8.43;3.10;;;;;;;;;;5054184;28;20428;-80
2023/06/10 09:50:35;;;;;;;10.13;3.60;;;;;;;;;;5074846;28;20874;-80
2023/06/10 09:53:08;;;;;;;9.32;3.47;;;;;;;;;;5078592;28;20430;-79
2023/06/10 09:55:42;;;;;;;9.07;3.30;;;;;;;;;;5079126;28;20410;-80
2023/06/10 09:58:15;;;;;;;8.70;3.40;;;;;;;;;;5075705;28;20424;-79
2023/06/10 10:00:53;;;;;;;8.45;3.25;;;;;;;;;;5072872;28;20437;-79
2023/06/10 10:03:23;;;;;;;9.07;3.15;;;;;;;;;;5080617;28;20942;-81
2023/06/10 10:06:00;;;;;;;6.82;3.00;;;;;;;;;;5076585;28;20885;-80
2023/06/10 10:08:28;;;;;;;8.02;3.35;;;;;;;;;;5077209;28;21074;-79
2023/06/10 10:10:57;;;;;;;13.00;3.40;;;;;;;;;;5060536;28;20434;-80
2023/06/10 10:13:34;;;;;;;9.20;3.30;;;;;;;;;;5054646;28;20767;-81
2023/06/10 10:16:10;;;;;;;10.88;3.67;;;;;;;;;;5055355;28;20421;-81
2023/06/10 10:18:40;;;;;;;8.07;3.70;;;;;;;;;;5061164;28;20433;-81
2023/06/10 10:21:14;;;;;;;11.17;3.97;;;;;;;;;;5061133;28;20425;-82
2023/06/10 10:23:53;;;;;;;8.40;3.40;;;;;;;;;;5057038;28;20420;-80
2023/06/10 10:26:22;;;;;;;9.30;3.72;;;;;;;;;;5060746;28;20889;-81
2023/06/10 10:28:59;;;;;;;8.00;3.38;;;;;;;;;;5065968;28;20430;-81
2023/06/10 10:31:33;;;;;;;8.50;3.55;;;;;;;;;;5055293;28;21071;-81
2023/06/10 10:34:07;;;;;;;8.77;3.40;;;;;;;;;;5059390;28;20777;-81
2023/06/10 10:36:42;;;;;;;8.30;3.65;;;;;;;;;;5053127;28;20433;-80
2023/06/10 10:39:15;;;;;;;8.50;3.40;;;;;;;;;;5059832;28;20437;-80
2023/06/10 10:41:43;;;;;;;8.90;3.50;;;;;;;;;;5056426;28;20409;-82
2023/06/10 10:44:11;;;;;;;11.45;3.72;;;;;;;;;;5052877;28;20410;-81
2023/06/10 10:46:45;;;;;;;9.25;3.85;;;;;;;;;;5058314;28;20422;-81
2023/06/10 10:49:19;;;;;;;7.78;3.60;;;;;;;;;;5060711;28;21004;-81
2023/06/10 10:51:58;;;;;;;10.52;3.60;;;;;;;;;;5055255;28;20441;-82
2023/06/10 10:54:30;;;;;;;7.15;3.50;;;;;;;;;;5057608;28;20426;-81
2023/06/10 10:57:16;;;;;;;10.85;4.15;;;;;;;;;;5063502;28;20762;-81
2023/06/10 10:59:56;;;;;;;10.93;3.90;;;;;;;;;;5051541;28;20430;-82
2023/06/10 11:02:35;;;;;;;7.93;3.90;;;;;;;;;;5055558;28;20422;-80
2023/06/10 11:05:03;;;;;;;8.65;4.00;;;;;;;;;;5051472;28;20417;-82
2023/06/10 11:07:38;;;;;;;9.00;4.07;;;;;;;;;;5049519;28;20429;-80
2023/06/10 11:10:09;;;;;;;9.82;4.40;;;;;;;;;;5053206;28;20428;-80
2023/06/10 11:12:52;;;;;;;11.07;3.75;;;;;;;;;;5062972;28;20428;-80
2023/06/10 11:15:26;;;;;;;9.30;3.75;;;;;;;;;;5059779;28;20436;-82
2023/06/10 11:18:10;;;;;;;9.10;3.83;;;;;;;;;;5063265;28;20432;-82
2023/06/10 11:20:51;;;;;;;8.70;3.80;;;;;;;;;;5057370;28;20422;-82
2023/06/10 11:23:42;;;;;;;8.73;3.80;;;;;;;;;;5060222;28;22308;-81
2023/06/10 11:26:13;;;;;;;7.78;3.97;;;;;;;;;;5057375;28;20428;-82
2023/06/10 11:28:41;;;;;;;11.77;4.70;;;;;;;;;;5066995;28;20424;-82
2023/06/10 11:31:20;;;;;;;7.95;3.67;;;;;;;;;;5051121;28;20433;-81
2023/06/10 11:33:54;;;;;;;8.88;3.88;;;;;;;;;;5062899;28;20434;-80
2023/06/10 11:36:27;;;;;;;9.00;3.70;;;;;;;;;;5054222;28;20441;-81
2023/06/10 11:39:03;;;;;;;8.93;3.63;;;;;;;;;;5054460;28;20426;-82
2023/06/10 11:41:37;;;;;;;8.33;3.73;;;;;;;;;;5065449;28;21125;-81
2023/06/10 11:44:08;;;;;;;8.80;3.90;;;;;;;;;;5057934;28;20429;-80
2023/06/10 11:46:36;;;;;;;8.00;3.65;;;;;;;;;;5056529;28;20422;-80
2023/06/10 11:49:09;;;;;;;8.07;3.60;;;;;;;;;;5053278;28;20424;-81
2023/06/10 11:51:48;;;;;;;8.02;3.55;;;;;;;;;;5055746;28;20461;-81
2023/06/10 11:54:18;;;;;;;9.73;3.95;;;;;;;;;;5058884;28;20429;-82
2023/06/10 11:56:51;;;;;;;9.50;4.28;;;;;;;;;;5058233;28;20436;-81
2023/06/10 11:59:27;;;;;;;11.15;3.92;;;;;;;;;;5058938;28;20437;-82
2023/06/10 12:01:55;;;;;;;8.90;3.88;;;;;;;;;;5065777;28;20428;-82
2023/06/10 12:04:23;;;;;;;10.75;3.80;;;;;;;;;;5057906;28;21015;-81
2023/06/10 12:06:51;;;;;;;10.25;4.00;;;;;;;;;;5052953;28;20438;-82
2023/06/10 12:09:21;;;;;;;8.88;3.78;;;;;;;;;;5061499;28;20425;-82
2023/06/10 12:11:56;;;;;;;7.93;3.85;;;;;;;;;;5061241;28;20430;-83
2023/06/10 12:14:48;;;;;;;8.10;3.70;;;;;;;;;;5060710;28;20422;-84
2023/06/10 12:17:16;;;;;;;8.38;3.72;;;;;;;;;;5058440;28;20429;-82
2023/06/10 12:19:49;;;;;;;10.53;4.37;;;;;;;;;;5057553;28;20734;-82
2023/06/10 12:22:23;;;;;;;9.70;3.95;;;;;;;;;;5055465;28;20437;-81
2023/06/10 12:25:01;;;;;;;8.95;4.20;;;;;;;;;;5065038;28;20414;-84
2023/06/10 12:27:30;;;;;;;9.77;4.07;;;;;;;;;;5058281;28;20420;-81
2023/06/10 12:30:00;;;;;;;10.32;3.95;;;;;;;;;;5060149;28;20699;-81
2023/06/10 12:32:37;;;;;;;9.18;4.10;;;;;;;;;;5055994;28;20430;-82
2023/06/10 12:35:10;;;;;;;11.52;4.10;;;;;;;;;;5066098;28;20424;-80
2023/06/10 12:37:43;;;;;;;9.07;4.18;;;;;;;;;;5052171;28;20418;-82
2023/06/10 12:40:17;;;;;;;7.65;3.70;;;;;;;;;;5055859;28;20953;-82
2023/06/10 12:42:45;;;;;;;8.63;3.97;;;;;;;;;;5059919;28;20418;-83
2023/06/10 12:45:13;;;;;;;11.98;3.95;;;;;;;;;;5054650;28;20418;-83
2023/06/10 12:47:46;;;;;;;7.65;3.90;;;;;;;;;;5062699;28;20430;-81
2023/06/10 12:50:19;;;;;;;7.05;3.78;;;;;;;;;;5066781;28;20425;-81
2023/06/10 12:52:47;;;;;;;7.28;3.72;;;;;;;;;;5065319;28;20429;-81
2023/06/10 12:55:15;;;;;;;8.05;3.97;;;;;;;;;;5061462;28;20410;-80
2023/06/10 12:57:52;;;;;;;8.68;3.47;;;;;;;;;;5051614;28;20481;-81
2023/06/10 13:00:29;;;;;;;12.02;3.28;;;;;;;;;;5054727;28;20097;-80
2023/06/10 13:03:02;;;;;;;8.95;3.30;;;;;;;;;;5062868;28;20839;-80
2023/06/10 13:05:37;;;;;;;6.47;2.88;;;;;;;;;;5061455;28;20405;-80
2023/06/10 13:08:05;;;;;;;9.43;3.38;;;;;;;;;;5052431;28;20412;-81
2023/06/10 13:10:33;;;;;;;7.97;3.17;;;;;;;;;;5031145;28;20059;-79
2023/06/10 13:13:09;;;;;;;7.70;3.25;;;;;;;;;;5060900;28;20056;-80
2023/06/10 13:15:37;;;;;;;10.27;3.15;;;;;;;;;;5063594;28;20051;-79
2023/06/10 13:18:05;;;;;;;9.85;2.90;;;;;;;;;;5062558;28;20071;-80
2023/06/10 13:20:33;;;;;;;6.90;2.50;;;;;;;;;;5057043;28;20138;-79
2023/06/10 13:23:01;;;;;;;7.15;2.30;;;;;;;;;;5067826;28;20071;-80
2023/06/10 13:25:29;;;;;;;6.30;2.25;;;;;;;;;;5052815;28;20583;-81
2023/06/10 13:27:57;;;;;;;7.75;2.80;;;;;;;;;;5065315;28;20052;-80
2023/06/10 13:30:26;;;;;;;6.35;2.17;;;;;;;;;;5059878;28;20070;-80
2023/06/10 13:32:59;;;;;;;9.05;2.65;;;;;;;;;;5063186;28;20524;-81
2023/06/10 13:35:32;;;;;;;7.72;2.33;;;;;;;;;;5051148;28;20695;-81
2023/06/10 13:38:07;;;;;;;11.50;2.65;;;;;;;;;;5055250;28;20056;-79
2023/06/10 13:40:39;;;;;;;14.95;2.47;;;;;;;;;;5056508;28;20055;-81
2023/06/10 13:43:09;;;;;;;7.30;2.22;;;;;;;;;;5058592;28;20056;-80
2023/06/10 13:45:43;;;;;;;12.50;2.50;;;;;;;;;;5063443;28;20063;-82
2023/06/10 13:48:11;;;;;;;5.38;1.98;;;;;;;;;;5058995;28;20071;-79
2023/06/10 13:50:45;;;;;;;9.98;2.40;;;;;;;;;;5056676;28;20728;-82
2023/06/10 13:53:13;;;;;;;10.85;2.63;;;;;;;;;;5063382;28;20062;-82
2023/06/10 13:55:46;;;;;;;7.75;2.13;;;;;;;;;;5059648;28;21400;-80
2023/06/10 13:58:14;;;;;;;6.53;2.08;;;;;;;;;;5058577;28;20056;-81
2023/06/10 14:00:43;;;;;;;10.38;2.63;;;;;;;;;;5060516;28;21168;-81
2023/06/10 14:03:16;;;;;;;12.35;2.40;;;;;;;;;;5063882;28;20527;-80
2023/06/10 14:05:45;;;;;;;6.75;2.38;;;;;;;;;;5062796;28;20060;-83
2023/06/10 14:08:14;;;;;;;7.30;2.05;;;;;;;;;;5065140;28;20058;-83
2023/06/10 14:10:44;;;;;;;10.88;2.60;;;;;;;;;;5032919;28;20431;-79
2023/06/10 14:13:17;;;;;;;15.25;2.50;;;;;;;;;;5059596;28;20055;-79
2023/06/10 14:15:46;;;;;;;10.13;2.35;;;;;;;;;;5070846;28;20051;-83
2023/06/10 14:18:19;;;;;;;10.23;2.20;;;;;;;;;;5065230;28;20056;-81
2023/06/10 14:20:47;;;;;;;6.65;2.40;;;;;;;;;;5062805;28;20048;-81
2023/06/10 14:23:19;;;;;;;10.00;2.55;;;;;;;;;;5059065;28;20056;-82
2023/06/10 14:25:47;;;;;;;8.02;2.17;;;;;;;;;;5067945;28;20059;-82
2023/06/10 14:28:20;;;;;;;9.85;2.55;;;;;;;;;;5059552;28;20067;-83
2023/06/10 14:30:50;;;;;;;10.45;2.50;;;;;;;;;;5061018;28;20055;-82
2023/06/10 14:33:18;;;;;;;8.48;2.20;;;;;;;;;;5068506;28;20064;-81
2023/06/10 14:35:51;;;;;;;5.72;1.95;;;;;;;;;;5065369;28;20052;-84
2023/06/10 14:38:18;;;;;;;7.20;2.03;;;;;;;;;;5063496;28;20686;-83
2023/06/10 14:40:52;;;;;;;8.95;2.30;;;;;;;;;;5067641;28;20047;-82
2023/06/10 14:43:20;;;;;;;6.97;2.03;;;;;;;;;;5064568;28;20063;-82
2023/06/10 14:45:47;;;;;;;5.88;1.90;;;;;;;;;;5061807;28;20066;-80
2023/06/10 14:48:17;;;;;;;6.30;2.28;;;;;;;;;;5060580;28;20070;-83
2023/06/10 14:50:50;;;;;;;7.65;2.40;;;;;;;;;;5064958;28;20052;-84
2023/06/10 14:53:23;;;;;;;6.47;2.10;;;;;;;;;;5063658;28;20048;-82
2023/06/10 14:55:51;;;;;;;9.00;2.20;;;;;;;;;;5064999;28;20100;-80
2023/06/10 14:58:19;;;;;;;11.25;2.28;;;;;;;;;;5056074;28;20059;-82
2023/06/10 15:00:47;;;;;;;5.70;2.40;;;;;;;;;;5058968;28;20048;-82
2023/06/10 15:03:15;;;;;;;5.75;2.42;;;;;;;;;;5058648;28;20052;-82
2023/06/10 15:05:44;;;;;;;10.20;2.40;;;;;;;;;;5058098;28;20063;-82
2023/06/10 15:08:12;;;;;;;9.48;2.60;;;;;;;;;;5061744;28;20052;-82